createdAt,value
2022-09-21T00:00:45.686Z,75.55
2022-09-21T00:03:14.380Z,75.64
2022-09-21T00:05:41.634Z,74.88
2022-09-21T00:08:10.540Z,74.87
2022-09-21T00:10:37.712Z,75.12
2022-09-21T00:13:04.980Z,75.08
2022-09-21T00:15:32.375Z,74.72
2022-09-21T00:18:00.133Z,74.44
2022-09-21T00:20:27.951Z,74.48
2022-09-21T00:22:55.107Z,74.37
2022-09-21T00:25:22.134Z,74.98
2022-09-21T00:27:51.341Z,74.53
2022-09-21T00:30:18.672Z,74.96
2022-09-21T00:32:45.648Z,75.26
2022-09-21T00:35:12.504Z,74.69
2022-09-21T00:37:39.447Z,74.73
2022-09-21T00:40:07.211Z,74.98
2022-09-21T00:42:35.431Z,74.94
2022-09-21T00:45:03.142Z,74.88
2022-09-21T00:47:44.976Z,74.67
2022-09-21T00:50:19.182Z,74.86
2022-09-21T00:52:53.828Z,74.57
2022-09-21T00:55:37.883Z,74.87
2022-09-21T00:58:15.209Z,75.02
2022-09-21T01:00:43.567Z,74.82
2022-09-21T01:03:12.717Z,74.79
2022-09-21T01:05:39.854Z,75.26
2022-09-21T01:08:10.729Z,74.66
2022-09-21T01:10:59.304Z,74.83
2022-09-21T01:13:26.125Z,74.96
2022-09-21T01:16:05.756Z,74.71
2022-09-21T01:18:47.642Z,75.14
2022-09-21T01:21:33.804Z,74.79
2022-09-21T01:24:11.824Z,74.97
2022-09-21T01:26:38.762Z,74.49
2022-09-21T01:29:35.050Z,74.45
2022-09-21T01:32:02.043Z,75.05
2022-09-21T01:34:43.565Z,74.57
2022-09-21T01:37:19.457Z,74.41
2022-09-21T01:39:50.539Z,75.15
2022-09-21T01:42:20.508Z,74.56
2022-09-21T01:44:49.632Z,74.97
2022-09-21T01:47:18.438Z,75.56
2022-09-21T01:49:50.705Z,75.04
2022-09-21T01:52:25.718Z,75.27
2022-09-21T01:54:58.815Z,74.92
2022-09-21T01:57:36.759Z,75.26
2022-09-21T02:00:06.659Z,75.25
2022-09-21T02:02:45.266Z,75.68
2022-09-21T02:05:14.039Z,75.46
2022-09-21T02:07:41.257Z,75.59
2022-09-21T02:10:13.649Z,75.38
2022-09-21T02:12:40.792Z,76.09
2022-09-21T02:15:08.547Z,75.40
2022-09-21T02:18:05.991Z,75.96
2022-09-21T02:20:38.901Z,75.47
2022-09-21T02:23:11.691Z,75.63
2022-09-21T02:26:06.840Z,75.52
2022-09-21T02:28:42.860Z,75.64
2022-09-21T02:31:14.019Z,75.90
2022-09-21T02:33:56.131Z,75.55
2022-09-21T02:36:38.625Z,75.14
2022-09-21T02:39:32.458Z,75.30
2022-09-21T02:42:15.209Z,75.76
2022-09-21T02:44:47.893Z,75.38
2022-09-21T02:47:34.458Z,75.24
2022-09-21T02:50:15.026Z,75.17
2022-09-21T02:52:44.411Z,75.43
2022-09-21T02:55:15.129Z,74.65
2022-09-21T02:57:43.038Z,75.03
2022-09-21T03:00:11.112Z,74.42
2022-09-21T03:02:42.722Z,74.52
2022-09-21T03:05:11.629Z,75.01
2022-09-21T03:07:39.155Z,74.32
2022-09-21T03:10:08.300Z,74.58
2022-09-21T03:12:35.382Z,74.37
2022-09-21T03:15:02.290Z,74.57
2022-09-21T03:17:31.166Z,74.17
2022-09-21T03:19:58.085Z,74.46
2022-09-21T03:22:25.171Z,74.52
2022-09-21T03:24:53.414Z,74.65
2022-09-21T03:27:22.289Z,74.39
2022-09-21T03:29:49.809Z,74.26
2022-09-21T03:32:16.921Z,74.20
2022-09-21T03:34:43.926Z,74.16
2022-09-21T03:37:11.672Z,73.86
2022-09-21T03:39:38.536Z,74.59
2022-09-21T03:42:06.443Z,74.00
2022-09-21T03:44:33.333Z,74.28
2022-09-21T03:47:00.325Z,74.20
2022-09-21T03:49:27.303Z,74.04
2022-09-21T03:51:55.234Z,74.13
2022-09-21T03:54:22.182Z,73.96
2022-09-21T03:56:49.184Z,73.75
2022-09-21T03:59:16.137Z,73.83
2022-09-21T04:01:43.521Z,73.50
2022-09-21T04:04:10.723Z,73.42
2022-09-21T04:06:37.738Z,73.63
2022-09-21T04:09:04.890Z,73.34
2022-09-21T04:11:32.553Z,73.31
2022-09-21T04:14:00.001Z,73.61
2022-09-21T04:16:27.720Z,73.51
2022-09-21T04:18:54.928Z,73.23
2022-09-21T04:21:22.393Z,72.78
2022-09-21T04:23:50.017Z,73.04
2022-09-21T04:26:23.166Z,72.95
2022-09-21T04:28:53.290Z,72.06
2022-09-21T04:31:20.976Z,72.52
2022-09-21T04:33:49.829Z,72.14
2022-09-21T04:36:18.816Z,72.28
2022-09-21T04:38:46.366Z,71.76
2022-09-21T04:41:13.699Z,71.32
2022-09-21T04:43:48.654Z,70.66
2022-09-21T04:46:18.694Z,70.80
2022-09-21T04:48:46.550Z,70.30
2022-09-21T04:51:17.008Z,69.82
2022-09-21T04:53:44.853Z,69.72
2022-09-21T04:56:15.028Z,70.06
2022-09-21T04:58:42.736Z,69.33
2022-09-21T05:01:10.285Z,69.34
2022-09-21T05:03:39.590Z,68.98
2022-09-21T05:06:09.028Z,69.06
2022-09-21T05:08:54.459Z,68.54
2022-09-21T05:11:21.461Z,68.25
2022-09-21T05:13:48.739Z,68.15
2022-09-21T05:16:16.764Z,67.15
2022-09-21T05:18:44.878Z,66.63
2022-09-21T05:21:13.819Z,66.65
2022-09-21T05:23:41.063Z,66.67
2022-09-21T05:26:08.191Z,66.62
2022-09-21T05:28:39.671Z,66.18
2022-09-21T05:31:28.272Z,65.61
2022-09-21T05:34:03.959Z,65.05
2022-09-21T05:36:51.284Z,64.03
2022-09-21T05:39:18.771Z,64.79
2022-09-21T05:41:46.013Z,63.37
2022-09-21T05:44:14.669Z,62.74
2022-09-21T05:46:52.694Z,62.70
2022-09-21T05:49:46.223Z,62.57
2022-09-21T05:52:28.244Z,63.19
2022-09-21T05:54:57.713Z,62.81
2022-09-21T05:57:33.647Z,61.83
2022-09-21T06:00:19.875Z,61.49
2022-09-21T06:03:29.586Z,62.12
2022-09-21T06:05:57.888Z,61.13
2022-09-21T06:08:26.183Z,59.77
2022-09-21T06:10:53.953Z,58.81
2022-09-21T06:13:21.583Z,58.25
2022-09-21T06:15:48.681Z,58.00
2022-09-21T06:18:18.038Z,57.74
2022-09-21T06:20:46.382Z,57.23
2022-09-21T06:23:14.938Z,56.45
2022-09-21T06:25:42.440Z,55.64
2022-09-21T06:28:12.165Z,53.94
2022-09-21T06:30:42.358Z,51.28
2022-09-21T06:33:09.842Z,50.20
2022-09-21T06:35:37.550Z,47.66
2022-09-21T06:38:07.702Z,45.18
2022-09-21T06:40:37.261Z,42.89
2022-09-21T06:43:05.355Z,42.18
2022-09-21T06:45:32.790Z,40.80
2022-09-21T06:47:59.864Z,38.64
2022-09-21T06:50:26.970Z,38.51
2022-09-21T06:52:54.082Z,38.01
2022-09-21T06:55:21.093Z,36.84
2022-09-21T06:57:48.142Z,36.29
2022-09-21T07:00:15.507Z,37.20
2022-09-21T07:02:45.701Z,38.10
2022-09-21T07:05:13.529Z,38.85
2022-09-21T07:07:40.638Z,39.24
2022-09-21T07:10:14.397Z,40.40
2022-09-21T07:12:43.290Z,40.21
2022-09-21T07:15:10.765Z,40.58
2022-09-21T07:17:39.473Z,39.75
2022-09-21T07:20:08.320Z,38.72
2022-09-21T07:22:36.028Z,37.23
2022-09-21T07:25:07.095Z,37.05
2022-09-21T07:27:34.502Z,36.03
2022-09-21T07:30:01.544Z,36.47
2022-09-21T07:32:31.722Z,37.98
2022-09-21T07:34:58.708Z,39.63
2022-09-21T07:37:26.388Z,41.74
2022-09-21T07:39:53.903Z,42.26
2022-09-21T07:42:22.929Z,42.45
2022-09-21T07:44:51.180Z,42.30
2022-09-21T07:47:18.475Z,42.52
2022-09-21T07:49:47.087Z,43.97
2022-09-21T07:52:15.544Z,44.95
2022-09-21T07:54:42.601Z,44.86
2022-09-21T07:57:30.733Z,44.95
2022-09-21T07:59:58.344Z,45.93
2022-09-21T08:02:25.545Z,46.86
2022-09-21T08:04:53.724Z,47.54
2022-09-21T08:07:20.749Z,48.17
2022-09-21T08:09:49.536Z,49.10
2022-09-21T08:12:20.884Z,50.23
2022-09-21T08:14:48.278Z,50.72
2022-09-21T08:17:15.372Z,51.18
2022-09-21T08:19:42.341Z,51.21
2022-09-21T08:22:09.315Z,51.27
2022-09-21T08:24:37.799Z,51.41
2022-09-21T08:27:10.357Z,51.37
2022-09-21T08:29:37.385Z,52.00
2022-09-21T08:32:04.637Z,51.73
2022-09-21T08:34:31.597Z,51.86
2022-09-21T08:36:58.476Z,51.31
2022-09-21T08:39:25.612Z,51.59
2022-09-21T08:42:36.056Z,51.72
2022-09-21T08:45:07.812Z,50.93
2022-09-21T08:47:53.741Z,51.04
2022-09-21T08:50:34.057Z,50.96
2022-09-21T08:53:06.746Z,51.16
2022-09-21T08:55:34.143Z,50.69
2022-09-21T08:58:01.480Z,50.65
2022-09-21T09:00:34.124Z,50.10
2022-09-21T09:03:27.165Z,50.45
2022-09-21T09:06:05.596Z,50.38
2022-09-21T09:09:09.975Z,49.95
2022-09-21T09:11:55.433Z,49.33
2022-09-21T09:14:36.988Z,49.54
2022-09-21T09:17:22.040Z,49.42
2022-09-21T09:19:55.337Z,48.91
2022-09-21T09:22:33.172Z,49.22
2022-09-21T09:25:07.331Z,49.13
2022-09-21T09:27:39.466Z,48.95
2022-09-21T09:30:13.771Z,48.41
2022-09-21T09:33:07.326Z,47.06
2022-09-21T09:35:37.237Z,46.15
2022-09-21T09:38:12.468Z,44.80
2022-09-21T09:40:56.003Z,45.05
2022-09-21T09:43:34.285Z,43.14
2022-09-21T09:46:13.551Z,42.36
2022-09-21T09:48:59.198Z,42.26
2022-09-21T09:51:26.982Z,41.96
2022-09-21T09:54:00.783Z,42.72
2022-09-21T09:56:28.664Z,43.11
2022-09-21T09:59:07.104Z,42.94
2022-09-21T10:01:41.955Z,43.47
2022-09-21T10:04:14.866Z,44.75
2022-09-21T10:06:46.327Z,44.79
2022-09-21T10:09:22.731Z,45.68
2022-09-21T10:11:50.126Z,45.99
2022-09-21T10:14:23.702Z,45.19
2022-09-21T10:16:52.624Z,44.79
2022-09-21T10:19:26.063Z,44.64
2022-09-21T10:22:04.775Z,44.75
2022-09-21T10:24:35.685Z,45.40
2022-09-21T10:27:10.488Z,45.57
2022-09-21T10:29:48.231Z,45.58
2022-09-21T10:32:18.071Z,46.18
2022-09-21T10:35:01.185Z,46.93
2022-09-21T10:37:35.032Z,47.36
2022-09-21T10:40:02.337Z,47.20
2022-09-21T10:42:43.081Z,47.51
2022-09-21T10:45:52.190Z,47.93
2022-09-21T10:48:22.271Z,48.73
2022-09-21T10:50:51.736Z,49.02
2022-09-21T10:53:50.949Z,48.89
2022-09-21T10:56:19.915Z,48.88
2022-09-21T10:59:23.906Z,49.01
2022-09-21T11:01:53.554Z,49.37
2022-09-21T11:04:37.069Z,49.62
2022-09-21T11:07:24.780Z,49.97
2022-09-21T11:10:03.856Z,49.99
2022-09-21T11:12:39.955Z,50.47
2022-09-21T11:15:21.117Z,50.82
2022-09-21T11:18:18.986Z,50.87
2022-09-21T11:20:58.672Z,51.06
2022-09-21T11:23:50.223Z,51.22
2022-09-21T11:26:35.287Z,50.58
2022-09-21T11:29:16.992Z,51.05
2022-09-21T11:32:08.768Z,51.80
2022-09-21T11:35:05.300Z,51.77
2022-09-21T11:37:41.266Z,51.76
2022-09-21T11:40:21.008Z,51.66
2022-09-21T11:43:10.561Z,51.68
2022-09-21T11:46:00.344Z,51.80
2022-09-21T11:48:45.393Z,51.84
2022-09-21T11:51:40.710Z,52.04
2022-09-21T11:54:26.184Z,52.33
2022-09-21T11:57:11.390Z,52.27
2022-09-21T12:00:06.109Z,52.42
2022-09-21T12:02:41.410Z,52.52
2022-09-21T12:05:34.737Z,52.37
2022-09-21T12:08:43.533Z,52.62
2022-09-21T12:11:31.773Z,52.84
2022-09-21T12:14:11.564Z,52.61
2022-09-21T12:16:45.216Z,53.16
2022-09-21T12:19:34.235Z,52.89
2022-09-21T12:22:14.628Z,53.18
2022-09-21T12:24:51.344Z,53.55
2022-09-21T12:27:26.563Z,53.72
2022-09-21T12:29:59.183Z,53.76
2022-09-21T12:32:54.289Z,53.73
2022-09-21T12:35:36.178Z,53.52
2022-09-21T12:38:21.563Z,53.01
2022-09-21T12:41:05.376Z,53.08
2022-09-21T12:43:50.267Z,53.53
2022-09-21T12:46:25.773Z,53.77
2022-09-21T12:48:53.134Z,53.84
2022-09-21T12:51:37.154Z,54.14
2022-09-21T12:54:31.832Z,54.20
2022-09-21T12:57:29.662Z,54.27
2022-09-21T13:00:04.163Z,54.32
2022-09-21T13:05:21.441Z,54.56
2022-09-21T13:08:01.035Z,54.85
2022-09-21T13:10:28.232Z,54.95
2022-09-21T13:13:01.939Z,54.94
2022-09-21T13:15:33.740Z,55.12
2022-09-21T13:18:04.405Z,55.25
2022-09-21T13:20:52.270Z,55.62
2022-09-21T13:23:53.147Z,55.58
2022-09-21T13:26:35.739Z,55.58
2022-09-21T13:29:08.918Z,55.79
2022-09-21T13:31:43.170Z,55.78
2022-09-21T13:34:24.351Z,56.01
2022-09-21T13:37:22.323Z,56.11
2022-09-21T13:39:57.927Z,56.38
2022-09-21T13:42:31.173Z,56.55
2022-09-21T13:45:11.241Z,56.29
2022-09-21T13:47:40.875Z,56.50
2022-09-21T13:50:23.281Z,56.67
2022-09-21T13:52:57.693Z,56.74
2022-09-21T13:55:32.182Z,56.49
2022-09-21T13:58:06.349Z,56.88
2022-09-21T14:00:59.997Z,56.77
2022-09-21T14:03:33.236Z,56.22
2022-09-21T14:06:13.505Z,56.46
2022-09-21T14:08:50.592Z,56.78
2022-09-21T14:11:27.672Z,56.79
2022-09-21T14:14:19.106Z,56.79
2022-09-21T14:16:56.388Z,56.83
2022-09-21T14:19:23.342Z,56.92
2022-09-21T14:22:06.338Z,56.67
2022-09-21T14:24:35.401Z,56.76
2022-09-21T14:27:16.549Z,57.11
2022-09-21T14:30:05.656Z,57.85
2022-09-21T14:32:43.431Z,57.30
2022-09-21T14:35:18.681Z,57.54
2022-09-21T14:37:58.067Z,57.80
2022-09-21T14:40:31.430Z,57.29
2022-09-21T14:43:02.270Z,57.48
2022-09-21T14:46:01.820Z,57.84
2022-09-21T14:48:46.180Z,57.72
2022-09-21T14:52:04.379Z,58.20
2022-09-21T14:54:59.265Z,58.40
2022-09-21T14:57:35.421Z,58.40
2022-09-21T15:00:22.166Z,58.75
2022-09-21T15:03:27.796Z,58.83
2022-09-21T15:06:31.930Z,58.97
2022-09-21T15:09:39.269Z,58.92
2022-09-21T15:12:16.347Z,58.83
2022-09-21T15:15:20.477Z,59.12
2022-09-21T15:18:00.787Z,59.23
2022-09-21T15:20:30.577Z,59.46
2022-09-21T15:23:01.005Z,60.00
2022-09-21T15:25:33.667Z,60.07
2022-09-21T15:28:01.283Z,59.99
2022-09-21T15:30:33.350Z,59.75
2022-09-21T15:33:03.809Z,59.87
2022-09-21T15:35:33.924Z,60.04
2022-09-21T15:38:01.447Z,60.11
2022-09-21T15:40:37.763Z,60.33
2022-09-21T15:43:19.609Z,60.50
2022-09-21T15:45:52.056Z,60.23
2022-09-21T15:48:19.975Z,60.79
2022-09-21T15:50:53.114Z,60.83
2022-09-21T15:53:36.391Z,60.84
2022-09-21T15:56:04.894Z,60.83
2022-09-21T15:58:37.487Z,60.47
2022-09-21T16:01:25.583Z,60.73
2022-09-21T16:04:06.950Z,60.96
2022-09-21T16:06:41.957Z,60.54
2022-09-21T16:09:24.206Z,61.06
2022-09-21T16:12:40.429Z,61.17
2022-09-21T16:15:23.859Z,61.28
2022-09-21T16:17:58.506Z,60.64
2022-09-21T16:20:38.922Z,60.54
2022-09-21T16:23:20.964Z,60.74
2022-09-21T16:26:00.916Z,60.72
2022-09-21T16:28:37.970Z,60.70
2022-09-21T16:31:30.195Z,60.67
2022-09-21T16:34:00.054Z,60.63
2022-09-21T16:36:29.633Z,60.67
2022-09-21T16:38:56.744Z,60.58
2022-09-21T16:41:33.550Z,60.77
2022-09-21T16:44:00.972Z,60.91
2022-09-21T16:46:28.259Z,61.09
2022-09-21T16:48:59.359Z,61.17
2022-09-21T16:51:29.866Z,61.40
2022-09-21T16:53:56.852Z,61.47
2022-09-21T16:56:27.193Z,62.01
2022-09-21T16:58:54.177Z,61.29
2022-09-21T17:01:21.200Z,61.83
2022-09-21T17:03:48.411Z,61.29
2022-09-21T17:06:17.762Z,61.34
2022-09-21T17:08:54.545Z,62.87
2022-09-21T17:11:21.650Z,64.00
2022-09-21T17:13:52.019Z,65.76
2022-09-21T17:16:20.601Z,66.58
2022-09-21T17:18:49.053Z,66.89
2022-09-21T17:21:17.127Z,67.44
2022-09-21T17:23:45.065Z,64.71
2022-09-21T17:26:21.354Z,65.64
2022-09-21T17:28:48.642Z,64.50
2022-09-21T17:31:16.648Z,64.58
2022-09-21T17:33:44.988Z,64.44
2022-09-21T17:36:17.326Z,66.10
2022-09-21T17:38:45.224Z,67.02
2022-09-21T17:41:38.403Z,68.16
2022-09-21T17:44:42.323Z,68.91
2022-09-21T17:47:23.674Z,68.71
2022-09-21T17:49:55.429Z,71.34
2022-09-21T17:52:46.080Z,71.09
2022-09-21T17:55:16.928Z,70.73
2022-09-21T17:58:07.247Z,70.89
2022-09-21T18:00:47.543Z,70.04
2022-09-21T18:03:22.325Z,72.40
2022-09-21T18:05:58.273Z,70.26
2022-09-21T18:08:27.430Z,71.02
2022-09-21T18:11:06.822Z,70.96
2022-09-21T18:13:47.275Z,70.22
2022-09-21T18:16:27.839Z,70.89
2022-09-21T18:19:15.908Z,70.48
2022-09-21T18:21:46.324Z,70.98
2022-09-21T18:24:42.812Z,71.31
2022-09-21T18:27:12.036Z,71.10
2022-09-21T18:29:41.466Z,72.77
2022-09-21T18:32:36.401Z,73.06
2022-09-21T18:35:46.683Z,73.42
2022-09-21T18:38:22.600Z,73.26
2022-09-21T18:41:11.369Z,73.77
2022-09-21T18:43:39.405Z,74.27
2022-09-21T18:46:13.339Z,73.19
2022-09-21T18:49:01.612Z,73.96
2022-09-21T18:51:47.160Z,74.15
2022-09-21T18:54:27.438Z,74.45
2022-09-21T18:56:55.725Z,74.39
2022-09-21T18:59:23.073Z,74.26
2022-09-21T19:01:50.788Z,73.21
2022-09-21T19:04:19.279Z,73.69
2022-09-21T19:07:11.070Z,73.54
2022-09-21T19:10:00.214Z,72.61
2022-09-21T19:12:30.208Z,74.40
2022-09-21T19:15:59.864Z,73.98
2022-09-21T19:18:41.730Z,74.22
2022-09-21T19:21:27.418Z,73.89
2022-09-21T19:24:02.608Z,74.82
2022-09-21T19:26:59.283Z,74.57
2022-09-21T19:29:45.083Z,74.60
2022-09-21T19:32:25.125Z,74.67
2022-09-21T19:34:53.775Z,74.69
2022-09-21T19:37:21.037Z,74.65
2022-09-21T19:39:48.104Z,74.83
2022-09-21T19:42:15.124Z,75.41
2022-09-21T19:45:18.662Z,75.60
2022-09-21T19:47:56.977Z,75.82
2022-09-21T19:50:36.203Z,75.27
2022-09-21T19:53:24.266Z,74.51
2022-09-21T19:56:10.269Z,75.38
2022-09-21T19:58:55.873Z,75.50
2022-09-21T20:01:23.018Z,76.09
2022-09-21T20:03:50.369Z,76.23
2022-09-21T20:06:27.095Z,76.52
2022-09-21T20:09:12.734Z,76.63
2022-09-21T20:12:06.218Z,76.02
2022-09-21T20:14:43.941Z,76.29
2022-09-21T20:17:20.346Z,75.94
2022-09-21T20:20:15.031Z,75.71
2022-09-21T20:22:42.393Z,75.94
2022-09-21T20:25:15.493Z,76.19
2022-09-21T20:27:56.478Z,75.81
2022-09-21T20:30:32.783Z,76.03
2022-09-21T20:33:12.065Z,76.07
2022-09-21T20:35:39.086Z,76.06
2022-09-21T20:38:06.096Z,75.73
2022-09-21T20:40:33.294Z,76.07
2022-09-21T20:43:01.340Z,75.38
2022-09-21T20:45:29.861Z,75.77
2022-09-21T20:48:13.384Z,76.08
2022-09-21T20:50:46.257Z,75.57
2022-09-21T20:53:13.685Z,75.10
2022-09-21T20:55:41.829Z,75.16
2022-09-21T20:58:12.778Z,74.41
2022-09-21T21:00:40.067Z,75.58
2022-09-21T21:03:07.120Z,75.25
2022-09-21T21:05:34.201Z,75.63
2022-09-21T21:08:01.873Z,75.17
2022-09-21T21:10:28.844Z,75.63
2022-09-21T21:12:57.793Z,75.16
2022-09-21T21:15:25.434Z,74.88
2022-09-21T21:17:52.708Z,74.60
2022-09-21T21:20:20.039Z,74.44
2022-09-21T21:22:49.774Z,75.13
2022-09-21T21:25:17.012Z,75.25
2022-09-21T21:27:43.924Z,74.94
2022-09-21T21:30:11.985Z,74.50
2022-09-21T21:32:38.864Z,74.99
2022-09-21T21:35:07.022Z,74.66
2022-09-21T21:37:33.921Z,75.40
2022-09-21T21:40:01.523Z,75.12
2022-09-21T21:42:29.971Z,75.45
2022-09-21T21:44:59.363Z,74.87
2022-09-21T21:47:41.747Z,74.96
2022-09-21T21:50:10.776Z,75.79
2022-09-21T21:52:38.038Z,75.54
2022-09-21T21:55:06.064Z,75.24
2022-09-21T21:57:33.513Z,76.21
2022-09-21T22:00:00.544Z,75.69
2022-09-21T22:02:29.696Z,75.22
2022-09-21T22:04:56.837Z,75.35
2022-09-21T22:07:23.840Z,75.74
2022-09-21T22:09:50.940Z,75.94
2022-09-21T22:12:17.950Z,76.04
2022-09-21T22:14:46.656Z,75.43
2022-09-21T22:17:14.578Z,75.88
2022-09-21T22:19:42.482Z,76.39
2022-09-21T22:22:09.538Z,75.89
2022-09-21T22:24:36.471Z,75.88
2022-09-21T22:27:03.459Z,76.41
2022-09-21T22:29:30.396Z,77.12
2022-09-21T22:31:57.608Z,75.35
2022-09-21T22:34:24.611Z,76.40
2022-09-21T22:36:51.533Z,77.17
2022-09-21T22:39:18.572Z,77.21
2022-09-21T22:41:45.572Z,76.52
2022-09-21T22:44:12.563Z,76.04
2022-09-21T22:46:39.557Z,76.23
2022-09-21T22:49:07.946Z,76.26
2022-09-21T22:51:35.210Z,75.76
2022-09-21T22:54:04.567Z,76.39
2022-09-21T22:56:33.283Z,76.13
2022-09-21T22:59:02.686Z,75.31
2022-09-21T23:01:33.731Z,75.68
2022-09-21T23:04:03.615Z,75.95
2022-09-21T23:06:33.621Z,74.95
2022-09-21T23:09:02.534Z,74.67
2022-09-21T23:11:32.805Z,75.07
2022-09-21T23:14:00.340Z,75.59
2022-09-21T23:16:28.720Z,75.44
2022-09-21T23:18:57.649Z,75.11
2022-09-21T23:21:28.235Z,75.73
2022-09-21T23:23:59.855Z,74.87
2022-09-21T23:26:32.173Z,74.96
2022-09-21T23:29:02.596Z,74.88
2022-09-21T23:31:31.711Z,75.05
2022-09-21T23:34:03.432Z,75.51
2022-09-21T23:36:31.937Z,75.31
2022-09-21T23:38:59.179Z,75.71
2022-09-21T23:41:27.933Z,76.11
2022-09-21T23:43:56.184Z,75.51
2022-09-21T23:46:28.658Z,76.11
2022-09-21T23:48:56.884Z,75.99
2022-09-21T23:51:26.628Z,76.12
2022-09-21T23:53:54.566Z,75.96
2022-09-21T23:56:23.395Z,76.44
2022-09-21T23:58:51.481Z,75.98
